sensor_id;sensor_type;location;lat;lon;timestamp;temperature;humidity
15556;DHT22;7879;48.660;9.116;2023-08-24T00:00:22;19.00;99.90
15556;DHT22;7879;48.660;9.116;2023-08-24T00:02:49;18.90;99.90
15556;DHT22;7879;48.660;9.116;2023-08-24T00:05:15;18.80;99.90
15556;DHT22;7879;48.660;9.116;2023-08-24T00:07:43;18.70;99.90
15556;DHT22;7879;48.660;9.116;2023-08-24T00:10:10;18.70;99.90
15556;DHT22;7879;48.660;9.116;2023-08-24T00:12:36;18.70;99.90
15556;DHT22;7879;48.660;9.116;2023-08-24T00:15:04;18.70;99.90
15556;DHT22;7879;48.660;9.116;2023-08-24T00:17:31;18.70;99.90
15556;DHT22;7879;48.660;9.116;2023-08-24T00:19:58;18.70;99.90
15556;DHT22;7879;48.660;9.116;2023-08-24T00:22:24;18.60;99.90
15556;DHT22;7879;48.660;9.116;2023-08-24T00:24:51;18.60;99.90
15556;DHT22;7879;48.660;9.116;2023-08-24T00:27:18;18.60;99.90
15556;DHT22;7879;48.660;9.116;2023-08-24T00:29:45;18.50;99.90
15556;DHT22;7879;48.660;9.116;2023-08-24T00:32:11;18.50;99.90
15556;DHT22;7879;48.660;9.116;2023-08-24T00:34:38;18.50;99.90
15556;DHT22;7879;48.660;9.116;2023-08-24T00:37:05;18.50;99.90
15556;DHT22;7879;48.660;9.116;2023-08-24T00:39:32;18.50;99.90
15556;DHT22;7879;48.660;9.116;2023-08-24T00:41:59;18.40;99.90
15556;DHT22;7879;48.660;9.116;2023-08-24T00:44:26;18.40;99.90
15556;DHT22;7879;48.660;9.116;2023-08-24T00:46:53;18.40;99.90
15556;DHT22;7879;48.660;9.116;2023-08-24T00:49:21;18.40;99.90
15556;DHT22;7879;48.660;9.116;2023-08-24T00:51:48;18.50;99.90
15556;DHT22;7879;48.660;9.116;2023-08-24T00:54:16;18.40;99.90
15556;DHT22;7879;48.660;9.116;2023-08-24T00:56:43;18.40;99.90
15556;DHT22;7879;48.660;9.116;2023-08-24T00:59:11;18.40;99.90
15556;DHT22;7879;48.660;9.116;2023-08-24T01:01:39;18.30;99.90
15556;DHT22;7879;48.660;9.116;2023-08-24T01:04:12;18.30;99.90
15556;DHT22;7879;48.660;9.116;2023-08-24T01:06:43;18.40;99.90
15556;DHT22;7879;48.660;9.116;2023-08-24T01:09:10;18.40;99.90
15556;DHT22;7879;48.660;9.116;2023-08-24T01:14:41;18.20;99.90
15556;DHT22;7879;48.660;9.116;2023-08-24T01:17:10;18.10;99.90
15556;DHT22;7879;48.660;9.116;2023-08-24T01:19:44;18.10;99.90
15556;DHT22;7879;48.660;9.116;2023-08-24T01:22:37;18.00;99.90
15556;DHT22;7879;48.660;9.116;2023-08-24T01:25:15;18.10;99.90
15556;DHT22;7879;48.660;9.116;2023-08-24T01:27:43;18.10;99.90
15556;DHT22;7879;48.660;9.116;2023-08-24T01:30:10;18.00;99.90
15556;DHT22;7879;48.660;9.116;2023-08-24T01:32:37;18.00;99.90
15556;DHT22;7879;48.660;9.116;2023-08-24T01:35:08;17.90;99.90
15556;DHT22;7879;48.660;9.116;2023-08-24T01:37:36;17.90;99.90
15556;DHT22;7879;48.660;9.116;2023-08-24T01:40:20;17.90;99.90
15556;DHT22;7879;48.660;9.116;2023-08-24T01:42:58;17.80;99.90
15556;DHT22;7879;48.660;9.116;2023-08-24T01:45:28;17.70;99.90
15556;DHT22;7879;48.660;9.116;2023-08-24T01:47:56;17.70;99.90
15556;DHT22;7879;48.660;9.116;2023-08-24T01:50:23;17.60;99.90
15556;DHT22;7879;48.660;9.116;2023-08-24T01:52:50;17.60;99.90
15556;DHT22;7879;48.660;9.116;2023-08-24T01:55:18;17.60;99.90
15556;DHT22;7879;48.660;9.116;2023-08-24T01:57:46;17.50;99.90
15556;DHT22;7879;48.660;9.116;2023-08-24T02:00:13;17.50;99.90
15556;DHT22;7879;48.660;9.116;2023-08-24T02:02:43;17.50;99.90
15556;DHT22;7879;48.660;9.116;2023-08-24T02:05:10;17.40;99.90
15556;DHT22;7879;48.660;9.116;2023-08-24T02:07:39;17.40;99.90
15556;DHT22;7879;48.660;9.116;2023-08-24T02:10:07;17.40;99.90
15556;DHT22;7879;48.660;9.116;2023-08-24T02:12:34;17.30;99.90
15556;DHT22;7879;48.660;9.116;2023-08-24T02:15:01;17.30;99.90
15556;DHT22;7879;48.660;9.116;2023-08-24T02:17:29;17.30;99.90
15556;DHT22;7879;48.660;9.116;2023-08-24T02:19:55;17.30;99.90
15556;DHT22;7879;48.660;9.116;2023-08-24T02:22:22;17.20;99.90
15556;DHT22;7879;48.660;9.116;2023-08-24T02:24:49;17.30;99.90
15556;DHT22;7879;48.660;9.116;2023-08-24T02:27:16;17.30;99.90
15556;DHT22;7879;48.660;9.116;2023-08-24T02:29:43;17.30;99.90
15556;DHT22;7879;48.660;9.116;2023-08-24T02:32:09;17.30;99.90
15556;DHT22;7879;48.660;9.116;2023-08-24T02:34:36;17.10;99.90
15556;DHT22;7879;48.660;9.116;2023-08-24T02:37:03;17.10;99.90
15556;DHT22;7879;48.660;9.116;2023-08-24T02:39:30;17.20;99.90
15556;DHT22;7879;48.660;9.116;2023-08-24T02:41:57;17.10;99.90
15556;DHT22;7879;48.660;9.116;2023-08-24T02:44:23;17.10;99.90
15556;DHT22;7879;48.660;9.116;2023-08-24T02:46:50;17.00;99.90
15556;DHT22;7879;48.660;9.116;2023-08-24T02:49:17;17.10;99.90
15556;DHT22;7879;48.660;9.116;2023-08-24T02:51:44;17.10;99.90
15556;DHT22;7879;48.660;9.116;2023-08-24T02:54:11;17.10;99.90
15556;DHT22;7879;48.660;9.116;2023-08-24T02:56:38;17.10;99.90
15556;DHT22;7879;48.660;9.116;2023-08-24T02:59:05;17.20;99.90
15556;DHT22;7879;48.660;9.116;2023-08-24T03:01:32;17.10;99.90
15556;DHT22;7879;48.660;9.116;2023-08-24T03:03:59;17.20;99.90
15556;DHT22;7879;48.660;9.116;2023-08-24T03:06:26;17.10;99.90
15556;DHT22;7879;48.660;9.116;2023-08-24T03:08:52;17.10;99.90
15556;DHT22;7879;48.660;9.116;2023-08-24T03:11:19;17.20;99.90
15556;DHT22;7879;48.660;9.116;2023-08-24T03:13:46;17.20;99.90
15556;DHT22;7879;48.660;9.116;2023-08-24T03:16:13;17.20;99.90
15556;DHT22;7879;48.660;9.116;2023-08-24T03:18:40;17.20;99.90
15556;DHT22;7879;48.660;9.116;2023-08-24T03:21:06;17.20;99.90
15556;DHT22;7879;48.660;9.116;2023-08-24T03:23:33;17.10;99.90
15556;DHT22;7879;48.660;9.116;2023-08-24T03:26:00;17.10;99.90
15556;DHT22;7879;48.660;9.116;2023-08-24T03:28:27;17.10;99.90
15556;DHT22;7879;48.660;9.116;2023-08-24T03:30:54;17.10;99.90
15556;DHT22;7879;48.660;9.116;2023-08-24T03:33:22;17.10;99.90
15556;DHT22;7879;48.660;9.116;2023-08-24T03:35:49;17.00;99.90
15556;DHT22;7879;48.660;9.116;2023-08-24T03:38:16;17.00;99.90
15556;DHT22;7879;48.660;9.116;2023-08-24T03:40:43;17.00;99.90
15556;DHT22;7879;48.660;9.116;2023-08-24T03:43:09;17.00;99.90
15556;DHT22;7879;48.660;9.116;2023-08-24T03:45:36;17.00;99.90
15556;DHT22;7879;48.660;9.116;2023-08-24T03:48:03;17.00;99.90
15556;DHT22;7879;48.660;9.116;2023-08-24T03:50:30;17.00;99.90
15556;DHT22;7879;48.660;9.116;2023-08-24T03:52:57;16.90;99.90
15556;DHT22;7879;48.660;9.116;2023-08-24T03:55:24;16.90;99.90
15556;DHT22;7879;48.660;9.116;2023-08-24T03:57:51;16.90;99.90
15556;DHT22;7879;48.660;9.116;2023-08-24T04:00:19;16.90;99.90
15556;DHT22;7879;48.660;9.116;2023-08-24T04:02:46;16.90;99.90
15556;DHT22;7879;48.660;9.116;2023-08-24T04:05:13;16.90;99.90
15556;DHT22;7879;48.660;9.116;2023-08-24T04:07:40;16.90;99.90
15556;DHT22;7879;48.660;9.116;2023-08-24T04:10:08;16.90;99.90
15556;DHT22;7879;48.660;9.116;2023-08-24T04:12:35;16.90;99.90
15556;DHT22;7879;48.660;9.116;2023-08-24T04:15:03;16.90;99.90
15556;DHT22;7879;48.660;9.116;2023-08-24T04:17:30;16.90;99.90
15556;DHT22;7879;48.660;9.116;2023-08-24T04:19:56;17.00;99.90
15556;DHT22;7879;48.660;9.116;2023-08-24T04:22:23;17.00;99.90
15556;DHT22;7879;48.660;9.116;2023-08-24T04:24:50;17.10;99.90
15556;DHT22;7879;48.660;9.116;2023-08-24T04:27:17;17.10;99.90
15556;DHT22;7879;48.660;9.116;2023-08-24T04:29:44;17.10;99.90
15556;DHT22;7879;48.660;9.116;2023-08-24T04:32:10;17.00;99.90
15556;DHT22;7879;48.660;9.116;2023-08-24T04:34:37;17.00;99.90
15556;DHT22;7879;48.660;9.116;2023-08-24T04:37:05;17.00;99.90
15556;DHT22;7879;48.660;9.116;2023-08-24T04:39:32;17.00;99.90
15556;DHT22;7879;48.660;9.116;2023-08-24T04:41:59;16.90;99.90
15556;DHT22;7879;48.660;9.116;2023-08-24T04:44:26;16.90;99.90
15556;DHT22;7879;48.660;9.116;2023-08-24T04:46:52;16.90;99.90
15556;DHT22;7879;48.660;9.116;2023-08-24T04:49:19;16.90;99.90
15556;DHT22;7879;48.660;9.116;2023-08-24T04:51:46;17.00;99.90
15556;DHT22;7879;48.660;9.116;2023-08-24T04:54:13;17.00;99.90
15556;DHT22;7879;48.660;9.116;2023-08-24T04:56:40;17.00;99.90
15556;DHT22;7879;48.660;9.116;2023-08-24T04:59:06;16.90;99.90
15556;DHT22;7879;48.660;9.116;2023-08-24T05:01:34;17.00;99.90
15556;DHT22;7879;48.660;9.116;2023-08-24T05:04:01;17.00;99.90
15556;DHT22;7879;48.660;9.116;2023-08-24T05:06:28;17.00;99.90
15556;DHT22;7879;48.660;9.116;2023-08-24T05:08:55;17.00;99.90
15556;DHT22;7879;48.660;9.116;2023-08-24T05:11:23;17.00;99.90
15556;DHT22;7879;48.660;9.116;2023-08-24T05:13:52;17.00;99.90
15556;DHT22;7879;48.660;9.116;2023-08-24T05:16:19;17.00;99.90
15556;DHT22;7879;48.660;9.116;2023-08-24T05:18:46;17.00;99.90
15556;DHT22;7879;48.660;9.116;2023-08-24T05:21:13;17.00;99.90
15556;DHT22;7879;48.660;9.116;2023-08-24T05:23:40;17.00;99.90
15556;DHT22;7879;48.660;9.116;2023-08-24T05:26:06;17.00;99.90
15556;DHT22;7879;48.660;9.116;2023-08-24T05:28:33;17.10;99.90
15556;DHT22;7879;48.660;9.116;2023-08-24T05:31:00;17.10;99.90
15556;DHT22;7879;48.660;9.116;2023-08-24T05:33:27;17.20;99.90
15556;DHT22;7879;48.660;9.116;2023-08-24T05:35:54;17.10;99.90
15556;DHT22;7879;48.660;9.116;2023-08-24T05:38:21;17.20;99.90
15556;DHT22;7879;48.660;9.116;2023-08-24T05:40:48;17.20;99.90
15556;DHT22;7879;48.660;9.116;2023-08-24T05:43:15;17.20;99.90
15556;DHT22;7879;48.660;9.116;2023-08-24T05:45:42;17.20;99.90
15556;DHT22;7879;48.660;9.116;2023-08-24T05:48:11;17.20;99.90
15556;DHT22;7879;48.660;9.116;2023-08-24T05:50:46;17.20;99.90
15556;DHT22;7879;48.660;9.116;2023-08-24T05:53:13;17.30;99.90
15556;DHT22;7879;48.660;9.116;2023-08-24T05:55:40;17.40;99.90
15556;DHT22;7879;48.660;9.116;2023-08-24T05:58:08;17.50;99.90
15556;DHT22;7879;48.660;9.116;2023-08-24T06:00:35;17.50;99.90
15556;DHT22;7879;48.660;9.116;2023-08-24T06:03:02;17.60;99.90
15556;DHT22;7879;48.660;9.116;2023-08-24T06:05:30;17.60;99.90
15556;DHT22;7879;48.660;9.116;2023-08-24T06:07:58;17.70;99.90
15556;DHT22;7879;48.660;9.116;2023-08-24T06:10:25;17.70;99.90
15556;DHT22;7879;48.660;9.116;2023-08-24T06:12:53;17.70;99.90
15556;DHT22;7879;48.660;9.116;2023-08-24T06:15:20;17.70;99.90
15556;DHT22;7879;48.660;9.116;2023-08-24T06:17:50;17.70;99.90
15556;DHT22;7879;48.660;9.116;2023-08-24T06:20:19;17.70;99.90
15556;DHT22;7879;48.660;9.116;2023-08-24T06:22:46;17.80;99.90
15556;DHT22;7879;48.660;9.116;2023-08-24T06:25:13;17.80;99.90
15556;DHT22;7879;48.660;9.116;2023-08-24T06:27:40;17.80;99.90
15556;DHT22;7879;48.660;9.116;2023-08-24T06:30:07;17.80;99.90
15556;DHT22;7879;48.660;9.116;2023-08-24T06:32:34;17.90;99.90
15556;DHT22;7879;48.660;9.116;2023-08-24T06:35:01;17.90;99.90
15556;DHT22;7879;48.660;9.116;2023-08-24T06:37:28;17.90;99.90
15556;DHT22;7879;48.660;9.116;2023-08-24T06:39:55;18.00;99.90
15556;DHT22;7879;48.660;9.116;2023-08-24T06:42:22;18.00;99.90
15556;DHT22;7879;48.660;9.116;2023-08-24T06:44:49;18.00;99.90
15556;DHT22;7879;48.660;9.116;2023-08-24T06:47:18;18.10;99.90
15556;DHT22;7879;48.660;9.116;2023-08-24T06:49:45;18.10;99.90
15556;DHT22;7879;48.660;9.116;2023-08-24T06:52:12;18.10;99.90
15556;DHT22;7879;48.660;9.116;2023-08-24T06:54:39;18.20;99.90
15556;DHT22;7879;48.660;9.116;2023-08-24T06:57:06;18.30;99.90
15556;DHT22;7879;48.660;9.116;2023-08-24T06:59:32;18.30;99.90
15556;DHT22;7879;48.660;9.116;2023-08-24T07:01:59;18.30;99.90
15556;DHT22;7879;48.660;9.116;2023-08-24T07:04:27;18.40;99.90
15556;DHT22;7879;48.660;9.116;2023-08-24T07:06:54;18.30;99.90
15556;DHT22;7879;48.660;9.116;2023-08-24T07:09:21;18.40;99.90
15556;DHT22;7879;48.660;9.116;2023-08-24T07:11:48;18.50;99.90
15556;DHT22;7879;48.660;9.116;2023-08-24T07:14:15;18.50;99.90
15556;DHT22;7879;48.660;9.116;2023-08-24T07:16:42;18.50;99.90
15556;DHT22;7879;48.660;9.116;2023-08-24T07:19:09;18.60;99.90
15556;DHT22;7879;48.660;9.116;2023-08-24T07:21:36;18.70;99.90
15556;DHT22;7879;48.660;9.116;2023-08-24T07:24:03;18.70;99.90
15556;DHT22;7879;48.660;9.116;2023-08-24T07:26:30;18.90;99.90
15556;DHT22;7879;48.660;9.116;2023-08-24T07:28:58;18.90;99.90
15556;DHT22;7879;48.660;9.116;2023-08-24T07:31:25;19.00;99.90
15556;DHT22;7879;48.660;9.116;2023-08-24T07:33:52;19.10;99.90
15556;DHT22;7879;48.660;9.116;2023-08-24T07:36:19;19.30;99.90
15556;DHT22;7879;48.660;9.116;2023-08-24T07:38:46;19.50;99.90
15556;DHT22;7879;48.660;9.116;2023-08-24T07:41:15;19.60;99.90
15556;DHT22;7879;48.660;9.116;2023-08-24T07:43:45;19.70;99.90
15556;DHT22;7879;48.660;9.116;2023-08-24T07:46:11;19.90;99.90
15556;DHT22;7879;48.660;9.116;2023-08-24T07:48:38;20.00;99.90
15556;DHT22;7879;48.660;9.116;2023-08-24T07:51:05;20.10;99.90
15556;DHT22;7879;48.660;9.116;2023-08-24T07:53:33;20.20;99.90
15556;DHT22;7879;48.660;9.116;2023-08-24T07:56:00;20.20;99.90
15556;DHT22;7879;48.660;9.116;2023-08-24T07:58:28;20.30;99.90
15556;DHT22;7879;48.660;9.116;2023-08-24T08:00:55;20.40;99.90
15556;DHT22;7879;48.660;9.116;2023-08-24T08:03:22;20.60;99.90
15556;DHT22;7879;48.660;9.116;2023-08-24T08:05:49;20.70;99.90
15556;DHT22;7879;48.660;9.116;2023-08-24T08:08:16;20.80;99.90
15556;DHT22;7879;48.660;9.116;2023-08-24T08:10:43;20.90;99.90
15556;DHT22;7879;48.660;9.116;2023-08-24T08:13:10;20.90;99.90
15556;DHT22;7879;48.660;9.116;2023-08-24T08:15:38;21.10;99.90
15556;DHT22;7879;48.660;9.116;2023-08-24T08:18:05;21.30;99.90
15556;DHT22;7879;48.660;9.116;2023-08-24T08:20:32;21.30;99.90
15556;DHT22;7879;48.660;9.116;2023-08-24T08:23:00;21.40;99.90
15556;DHT22;7879;48.660;9.116;2023-08-24T08:25:27;21.60;99.90
15556;DHT22;7879;48.660;9.116;2023-08-24T08:27:54;21.70;99.90
15556;DHT22;7879;48.660;9.116;2023-08-24T08:30:21;21.80;99.90
15556;DHT22;7879;48.660;9.116;2023-08-24T08:32:48;21.90;99.90
15556;DHT22;7879;48.660;9.116;2023-08-24T08:35:18;22.00;99.90
15556;DHT22;7879;48.660;9.116;2023-08-24T08:37:45;22.20;99.90
15556;DHT22;7879;48.660;9.116;2023-08-24T08:40:13;22.30;99.90
15556;DHT22;7879;48.660;9.116;2023-08-24T08:42:40;22.50;99.90
15556;DHT22;7879;48.660;9.116;2023-08-24T08:45:10;22.60;99.90
15556;DHT22;7879;48.660;9.116;2023-08-24T08:47:38;22.80;99.90
15556;DHT22;7879;48.660;9.116;2023-08-24T08:50:08;23.00;99.90
15556;DHT22;7879;48.660;9.116;2023-08-24T08:52:35;23.10;99.90
15556;DHT22;7879;48.660;9.116;2023-08-24T08:55:02;23.20;99.90
15556;DHT22;7879;48.660;9.116;2023-08-24T08:57:35;23.30;99.90
15556;DHT22;7879;48.660;9.116;2023-08-24T09:00:02;23.50;99.90
15556;DHT22;7879;48.660;9.116;2023-08-24T09:02:31;23.60;99.90
15556;DHT22;7879;48.660;9.116;2023-08-24T09:04:58;23.70;99.90
15556;DHT22;7879;48.660;9.116;2023-08-24T09:07:25;23.80;99.90
15556;DHT22;7879;48.660;9.116;2023-08-24T09:09:52;23.90;99.90
15556;DHT22;7879;48.660;9.116;2023-08-24T09:12:19;24.00;99.90
15556;DHT22;7879;48.660;9.116;2023-08-24T09:14:46;24.10;99.90
15556;DHT22;7879;48.660;9.116;2023-08-24T09:17:21;24.20;99.90
15556;DHT22;7879;48.660;9.116;2023-08-24T09:19:50;24.40;99.90
15556;DHT22;7879;48.660;9.116;2023-08-24T09:22:20;24.60;99.90
15556;DHT22;7879;48.660;9.116;2023-08-24T09:24:48;24.80;99.90
15556;DHT22;7879;48.660;9.116;2023-08-24T09:27:21;25.00;99.90
15556;DHT22;7879;48.660;9.116;2023-08-24T09:29:52;25.30;99.90
15556;DHT22;7879;48.660;9.116;2023-08-24T09:32:38;25.60;99.90
15556;DHT22;7879;48.660;9.116;2023-08-24T09:35:09;25.90;99.90
15556;DHT22;7879;48.660;9.116;2023-08-24T09:37:37;26.10;99.90
15556;DHT22;7879;48.660;9.116;2023-08-24T09:40:06;26.40;99.90
15556;DHT22;7879;48.660;9.116;2023-08-24T09:42:40;26.70;99.90
15556;DHT22;7879;48.660;9.116;2023-08-24T09:45:12;27.00;99.90
15556;DHT22;7879;48.660;9.116;2023-08-24T09:47:40;27.20;99.90
15556;DHT22;7879;48.660;9.116;2023-08-24T09:50:11;27.40;99.90
15556;DHT22;7879;48.660;9.116;2023-08-24T09:52:40;27.60;99.90
15556;DHT22;7879;48.660;9.116;2023-08-24T09:55:09;27.80;99.90
15556;DHT22;7879;48.660;9.116;2023-08-24T09:57:39;27.80;99.90
15556;DHT22;7879;48.660;9.116;2023-08-24T10:00:08;27.90;99.90
15556;DHT22;7879;48.660;9.116;2023-08-24T10:03:01;28.10;99.90
15556;DHT22;7879;48.660;9.116;2023-08-24T10:05:33;28.30;99.90
15556;DHT22;7879;48.660;9.116;2023-08-24T10:08:21;28.50;99.90
15556;DHT22;7879;48.660;9.116;2023-08-24T10:10:56;28.80;99.90
15556;DHT22;7879;48.660;9.116;2023-08-24T10:13:33;28.80;99.90
15556;DHT22;7879;48.660;9.116;2023-08-24T10:16:06;28.90;99.90
15556;DHT22;7879;48.660;9.116;2023-08-24T10:18:36;29.00;99.90
15556;DHT22;7879;48.660;9.116;2023-08-24T10:21:04;29.10;99.90
15556;DHT22;7879;48.660;9.116;2023-08-24T10:23:34;29.30;99.90
15556;DHT22;7879;48.660;9.116;2023-08-24T10:26:03;29.20;99.90
15556;DHT22;7879;48.660;9.116;2023-08-24T10:28:33;29.40;99.90
15556;DHT22;7879;48.660;9.116;2023-08-24T10:31:02;29.60;99.90
15556;DHT22;7879;48.660;9.116;2023-08-24T10:33:30;29.70;99.90
15556;DHT22;7879;48.660;9.116;2023-08-24T10:35:58;29.90;99.90
15556;DHT22;7879;48.660;9.116;2023-08-24T10:38:27;29.90;99.90
15556;DHT22;7879;48.660;9.116;2023-08-24T10:41:01;30.00;99.90
15556;DHT22;7879;48.660;9.116;2023-08-24T10:43:30;30.00;99.90
15556;DHT22;7879;48.660;9.116;2023-08-24T10:46:01;30.00;99.90
15556;DHT22;7879;48.660;9.116;2023-08-24T10:53:40;30.50;99.90
15556;DHT22;7879;48.660;9.116;2023-08-24T10:56:11;30.50;99.90
15556;DHT22;7879;48.660;9.116;2023-08-24T10:58:39;30.40;99.90
15556;DHT22;7879;48.660;9.116;2023-08-24T11:01:05;30.40;99.90
15556;DHT22;7879;48.660;9.116;2023-08-24T11:03:33;30.60;99.90
15556;DHT22;7879;48.660;9.116;2023-08-24T11:06:00;30.80;99.90
15556;DHT22;7879;48.660;9.116;2023-08-24T11:08:47;31.10;99.90
15556;DHT22;7879;48.660;9.116;2023-08-24T11:11:24;31.30;99.90
15556;DHT22;7879;48.660;9.116;2023-08-24T11:14:13;31.40;99.90
15556;DHT22;7879;48.660;9.116;2023-08-24T11:16:45;31.50;99.90
15556;DHT22;7879;48.660;9.116;2023-08-24T11:19:13;31.60;99.90
15556;DHT22;7879;48.660;9.116;2023-08-24T11:21:42;31.70;99.90
15556;DHT22;7879;48.660;9.116;2023-08-24T11:24:10;31.70;99.90
15556;DHT22;7879;48.660;9.116;2023-08-24T11:27:01;31.80;99.90
15556;DHT22;7879;48.660;9.116;2023-08-24T11:29:29;31.80;99.90
15556;DHT22;7879;48.660;9.116;2023-08-24T11:31:57;32.00;99.90
15556;DHT22;7879;48.660;9.116;2023-08-24T11:34:25;32.20;99.90
15556;DHT22;7879;48.660;9.116;2023-08-24T11:36:52;32.30;99.80
15556;DHT22;7879;48.660;9.116;2023-08-24T11:39:21;32.50;99.90
15556;DHT22;7879;48.660;9.116;2023-08-24T11:42:05;32.60;99.90
15556;DHT22;7879;48.660;9.116;2023-08-24T11:44:46;32.60;99.70
15556;DHT22;7879;48.660;9.116;2023-08-24T11:47:13;32.60;99.30
15556;DHT22;7879;48.660;9.116;2023-08-24T11:49:41;32.70;99.10
15556;DHT22;7879;48.660;9.116;2023-08-24T11:52:08;32.80;98.50
15556;DHT22;7879;48.660;9.116;2023-08-24T11:54:36;32.70;98.80
15556;DHT22;7879;48.660;9.116;2023-08-24T11:57:07;32.80;99.00
15556;DHT22;7879;48.660;9.116;2023-08-24T11:59:42;32.80;99.10
15556;DHT22;7879;48.660;9.116;2023-08-24T12:02:10;32.60;99.60
15556;DHT22;7879;48.660;9.116;2023-08-24T12:04:41;32.50;99.50
15556;DHT22;7879;48.660;9.116;2023-08-24T12:07:11;32.40;98.80
15556;DHT22;7879;48.660;9.116;2023-08-24T12:09:42;32.40;98.70
15556;DHT22;7879;48.660;9.116;2023-08-24T12:12:16;32.40;99.20
15556;DHT22;7879;48.660;9.116;2023-08-24T12:14:45;32.50;99.30
15556;DHT22;7879;48.660;9.116;2023-08-24T12:17:12;32.70;98.50
15556;DHT22;7879;48.660;9.116;2023-08-24T12:19:43;32.90;98.20
15556;DHT22;7879;48.660;9.116;2023-08-24T12:22:15;33.00;98.50
15556;DHT22;7879;48.660;9.116;2023-08-24T12:24:46;33.20;97.60
15556;DHT22;7879;48.660;9.116;2023-08-24T12:27:24;33.10;97.30
15556;DHT22;7879;48.660;9.116;2023-08-24T12:29:53;33.10;97.50
15556;DHT22;7879;48.660;9.116;2023-08-24T12:32:20;33.00;97.30
15556;DHT22;7879;48.660;9.116;2023-08-24T12:34:49;33.00;97.40
15556;DHT22;7879;48.660;9.116;2023-08-24T12:37:18;32.90;97.60
15556;DHT22;7879;48.660;9.116;2023-08-24T12:39:45;33.00;97.70
15556;DHT22;7879;48.660;9.116;2023-08-24T12:42:12;33.10;97.90
15556;DHT22;7879;48.660;9.116;2023-08-24T12:44:39;33.20;96.90
15556;DHT22;7879;48.660;9.116;2023-08-24T12:47:06;33.10;96.70
15556;DHT22;7879;48.660;9.116;2023-08-24T12:49:32;33.10;96.20
15556;DHT22;7879;48.660;9.116;2023-08-24T12:51:59;33.10;97.00
15556;DHT22;7879;48.660;9.116;2023-08-24T12:54:26;33.10;97.30
15556;DHT22;7879;48.660;9.116;2023-08-24T12:56:53;33.20;96.90
15556;DHT22;7879;48.660;9.116;2023-08-24T12:59:20;33.20;96.70
15556;DHT22;7879;48.660;9.116;2023-08-24T13:01:47;33.10;95.80
15556;DHT22;7879;48.660;9.116;2023-08-24T13:04:14;33.10;96.00
15556;DHT22;7879;48.660;9.116;2023-08-24T13:06:41;33.10;96.20
15556;DHT22;7879;48.660;9.116;2023-08-24T13:09:07;33.10;96.00
15556;DHT22;7879;48.660;9.116;2023-08-24T13:11:35;33.10;95.60
15556;DHT22;7879;48.660;9.116;2023-08-24T13:14:02;33.20;95.80
15556;DHT22;7879;48.660;9.116;2023-08-24T13:16:29;33.30;95.60
15556;DHT22;7879;48.660;9.116;2023-08-24T13:18:56;33.30;95.50
15556;DHT22;7879;48.660;9.116;2023-08-24T13:21:24;33.40;95.00
15556;DHT22;7879;48.660;9.116;2023-08-24T13:23:52;33.40;95.20
15556;DHT22;7879;48.660;9.116;2023-08-24T13:26:21;33.50;94.80
15556;DHT22;7879;48.660;9.116;2023-08-24T13:28:48;33.40;94.60
15556;DHT22;7879;48.660;9.116;2023-08-24T13:31:16;33.30;94.10
15556;DHT22;7879;48.660;9.116;2023-08-24T13:33:44;33.30;94.20
15556;DHT22;7879;48.660;9.116;2023-08-24T13:36:11;33.30;94.40
15556;DHT22;7879;48.660;9.116;2023-08-24T13:38:38;33.30;94.10
15556;DHT22;7879;48.660;9.116;2023-08-24T13:41:08;33.40;93.60
15556;DHT22;7879;48.660;9.116;2023-08-24T13:43:35;33.40;94.00
15556;DHT22;7879;48.660;9.116;2023-08-24T13:46:02;33.50;93.90
15556;DHT22;7879;48.660;9.116;2023-08-24T13:48:30;33.30;93.30
15556;DHT22;7879;48.660;9.116;2023-08-24T13:51:01;33.30;93.80
15556;DHT22;7879;48.660;9.116;2023-08-24T13:53:28;33.30;93.80
15556;DHT22;7879;48.660;9.116;2023-08-24T13:55:55;33.40;94.00
15556;DHT22;7879;48.660;9.116;2023-08-24T13:58:22;33.40;94.00
15556;DHT22;7879;48.660;9.116;2023-08-24T14:00:55;33.40;94.40
15556;DHT22;7879;48.660;9.116;2023-08-24T14:03:22;33.50;94.30
15556;DHT22;7879;48.660;9.116;2023-08-24T14:05:54;33.50;92.40
15556;DHT22;7879;48.660;9.116;2023-08-24T14:08:21;33.40;93.10
15556;DHT22;7879;48.660;9.116;2023-08-24T14:10:48;33.40;92.60
15556;DHT22;7879;48.660;9.116;2023-08-24T14:13:15;33.30;92.90
15556;DHT22;7879;48.660;9.116;2023-08-24T14:15:42;33.30;93.70
15556;DHT22;7879;48.660;9.116;2023-08-24T14:18:11;33.30;93.10
15556;DHT22;7879;48.660;9.116;2023-08-24T14:20:39;33.30;93.30
15556;DHT22;7879;48.660;9.116;2023-08-24T14:23:06;33.30;94.00
15556;DHT22;7879;48.660;9.116;2023-08-24T14:25:33;33.30;93.70
15556;DHT22;7879;48.660;9.116;2023-08-24T14:28:00;33.20;93.60
15556;DHT22;7879;48.660;9.116;2023-08-24T14:30:33;33.10;93.60
15556;DHT22;7879;48.660;9.116;2023-08-24T14:33:00;33.10;93.60
15556;DHT22;7879;48.660;9.116;2023-08-24T14:35:27;33.00;93.50
15556;DHT22;7879;48.660;9.116;2023-08-24T14:37:56;33.00;93.90
15556;DHT22;7879;48.660;9.116;2023-08-24T14:40:23;32.90;94.90
15556;DHT22;7879;48.660;9.116;2023-08-24T14:42:51;32.90;94.80
15556;DHT22;7879;48.660;9.116;2023-08-24T14:45:18;32.90;96.20
15556;DHT22;7879;48.660;9.116;2023-08-24T14:47:44;32.90;95.60
15556;DHT22;7879;48.660;9.116;2023-08-24T14:50:12;32.80;95.30
15556;DHT22;7879;48.660;9.116;2023-08-24T14:52:40;32.70;95.70
15556;DHT22;7879;48.660;9.116;2023-08-24T14:55:07;32.70;95.30
15556;DHT22;7879;48.660;9.116;2023-08-24T14:57:39;32.60;94.60
15556;DHT22;7879;48.660;9.116;2023-08-24T15:00:06;32.60;94.50
15556;DHT22;7879;48.660;9.116;2023-08-24T15:02:36;32.40;94.10
15556;DHT22;7879;48.660;9.116;2023-08-24T15:05:04;32.20;94.40
15556;DHT22;7879;48.660;9.116;2023-08-24T15:07:31;32.10;94.90
15556;DHT22;7879;48.660;9.116;2023-08-24T15:09:58;31.60;98.40
15556;DHT22;7879;48.660;9.116;2023-08-24T15:12:24;30.70;99.90
15556;DHT22;7879;48.660;9.116;2023-08-24T15:14:59;30.20;99.90
15556;DHT22;7879;48.660;9.116;2023-08-24T15:17:28;29.90;99.90
15556;DHT22;7879;48.660;9.116;2023-08-24T15:19:55;29.70;99.90
15556;DHT22;7879;48.660;9.116;2023-08-24T15:22:25;29.60;99.90
15556;DHT22;7879;48.660;9.116;2023-08-24T15:24:56;29.30;99.90
15556;DHT22;7879;48.660;9.116;2023-08-24T15:27:22;29.20;99.90
15556;DHT22;7879;48.660;9.116;2023-08-24T15:29:49;28.90;99.90
15556;DHT22;7879;48.660;9.116;2023-08-24T15:32:18;28.70;99.90
15556;DHT22;7879;48.660;9.116;2023-08-24T15:34:46;28.60;99.90
15556;DHT22;7879;48.660;9.116;2023-08-24T15:37:13;28.40;99.90
15556;DHT22;7879;48.660;9.116;2023-08-24T15:39:40;28.40;99.90
15556;DHT22;7879;48.660;9.116;2023-08-24T15:42:07;28.50;99.90
15556;DHT22;7879;48.660;9.116;2023-08-24T15:44:34;28.50;99.90
15556;DHT22;7879;48.660;9.116;2023-08-24T15:47:01;28.50;99.90
15556;DHT22;7879;48.660;9.116;2023-08-24T15:49:28;28.50;99.90
15556;DHT22;7879;48.660;9.116;2023-08-24T15:51:55;28.50;99.90
15556;DHT22;7879;48.660;9.116;2023-08-24T15:54:22;28.40;99.90
15556;DHT22;7879;48.660;9.116;2023-08-24T15:56:51;28.20;99.90
15556;DHT22;7879;48.660;9.116;2023-08-24T15:59:21;28.10;99.90